Airfield :
LOGIN :

Register | Disclaimer

   EN    FR    IT 

 










Legend :    VFR   Marginal VFR   IFR   Intensive IFR   Very Intensive IFR
Visi :
Ceiling :
>= 8 km
>= 3000ft
5 to 8 km
1000 to 3000 ft
1500m to 5 km
500 to 1000 ft
800 to 1500m
200 to 500 ft
< 800m
< 200 ft
Symbols :   Thunderstorms  Fog  Heavy snow  Heavy precipitations  Wind > 20 kt
SIGMETs :     Misc.  Thunderstorms  Icing  Turbulence  Mountain Waves  Volcanic Ashes







- Airport Elevation : 935 ft


EBFS - Florennes

CURRENT METAR :
  • 181525Z AUTO 25013KT 9999 FEW024/// BKN042/// 20/14 Q1022 BLU

EXPIRED METARs :
  • 181516Z AUTO 25012KT 9999 FEW023/// SCT031/// BKN044/// 20/14 Q1022 BLU

TAF TAF EBFS
Valid from the 18 at 07:00 until the 18 at 16:00 UTC


180541Z 1807/1816 23010KT 9999 BKN030
BECMG 1807/1809 FEW015 SCT020
TEMPO 1810/1813 4000 -RADZ FEW006 SCT008 BKN020
PROB30
TEMPO 1810/1812 3000 RADZ SCT005 BKN008
No reported NOTAMs for that airfield.



MET'MAP, your aeronautical weather chart ! - Copyright ORBIFLY December 2007 - Disclaimer

ORBIFLY MET'MAP TEAM :

Programming & Development : Alexandra Zaïnal
Concept & Development : Baudouin d'Aumeries
Co-Development & Prog : Marc-Olivier Méhu
Technical & hardware support : Manuel Goepfert

Contact : metmap@orbifly.com




SOURCES & CREDITS :

   NOAA